sensor_id;sensor_type;location;lat;lon;timestamp;pressure;altitude;pressure_sealevel;temperature;humidity
6423;BME280;3244;42.708;23.288;2023-04-25T00:02:10;94290.53;;;13.00;85.53
6423;BME280;3244;42.708;23.288;2023-04-25T00:04:37;94279.72;;;12.80;85.64
6423;BME280;3244;42.708;23.288;2023-04-25T00:07:04;94269.25;;;12.69;84.74
6423;BME280;3244;42.708;23.288;2023-04-25T00:09:32;94259.16;;;12.68;85.18
6423;BME280;3244;42.708;23.288;2023-04-25T00:11:59;94254.88;;;12.68;85.60
6423;BME280;3244;42.708;23.288;2023-04-25T00:14:26;94249.03;;;12.82;86.35
6423;BME280;3244;42.708;23.288;2023-04-25T00:16:53;94243.56;;;13.04;86.45
6423;BME280;3244;42.708;23.288;2023-04-25T00:19:20;94248.34;;;12.94;85.57
6423;BME280;3244;42.708;23.288;2023-04-25T00:21:47;94253.16;;;12.84;86.16
6423;BME280;3244;42.708;23.288;2023-04-25T00:24:14;94253.91;;;12.86;86.24
6423;BME280;3244;42.708;23.288;2023-04-25T00:26:42;94251.16;;;12.89;86.59
6423;BME280;3244;42.708;23.288;2023-04-25T00:29:09;94252.72;;;12.92;86.66
6423;BME280;3244;42.708;23.288;2023-04-25T00:31:35;94247.09;;;13.01;87.20
6423;BME280;3244;42.708;23.288;2023-04-25T00:34:02;94253.59;;;13.07;87.10
6423;BME280;3244;42.708;23.288;2023-04-25T00:36:29;94261.63;;;13.15;87.96
6423;BME280;3244;42.708;23.288;2023-04-25T00:38:55;94257.44;;;13.44;89.12
6423;BME280;3244;42.708;23.288;2023-04-25T00:41:22;94249.78;;;13.44;88.15
6423;BME280;3244;42.708;23.288;2023-04-25T00:43:52;94255.38;;;13.36;88.41
6423;BME280;3244;42.708;23.288;2023-04-25T00:46:20;94265.75;;;13.17;88.46
6423;BME280;3244;42.708;23.288;2023-04-25T00:48:46;94251.94;;;13.21;87.18
6423;BME280;3244;42.708;23.288;2023-04-25T00:51:16;94250.06;;;13.39;86.81
6423;BME280;3244;42.708;23.288;2023-04-25T00:53:45;94247.06;;;13.33;87.13
6423;BME280;3244;42.708;23.288;2023-04-25T00:56:12;94250.31;;;13.05;86.96
6423;BME280;3244;42.708;23.288;2023-04-25T00:58:40;94247.75;;;13.05;86.50
6423;BME280;3244;42.708;23.288;2023-04-25T01:01:10;94253.97;;;13.15;86.08
6423;BME280;3244;42.708;23.288;2023-04-25T01:03:38;94235.16;;;13.17;85.90
6423;BME280;3244;42.708;23.288;2023-04-25T01:06:07;94233.28;;;12.89;84.43
6423;BME280;3244;42.708;23.288;2023-04-25T01:08:35;94232.38;;;12.90;83.71
6423;BME280;3244;42.708;23.288;2023-04-25T01:11:02;94229.09;;;13.04;84.61
6423;BME280;3244;42.708;23.288;2023-04-25T01:13:28;94228.53;;;13.13;85.64
6423;BME280;3244;42.708;23.288;2023-04-25T01:15:57;94218.25;;;13.15;85.62
6423;BME280;3244;42.708;23.288;2023-04-25T01:18:25;94217.44;;;13.30;86.13
6423;BME280;3244;42.708;23.288;2023-04-25T01:20:53;94211.25;;;13.34;86.35
6423;BME280;3244;42.708;23.288;2023-04-25T01:23:22;94210.59;;;13.15;86.75
6423;BME280;3244;42.708;23.288;2023-04-25T01:25:49;94217.31;;;13.02;87.28
6423;BME280;3244;42.708;23.288;2023-04-25T01:28:16;94213.81;;;12.88;87.85
6423;BME280;3244;42.708;23.288;2023-04-25T01:30:43;94216.97;;;12.78;88.51
6423;BME280;3244;42.708;23.288;2023-04-25T01:33:10;94217.22;;;12.73;89.16
6423;BME280;3244;42.708;23.288;2023-04-25T01:35:38;94209.31;;;12.78;89.13
6423;BME280;3244;42.708;23.288;2023-04-25T01:38:06;94213.03;;;12.72;89.90
6423;BME280;3244;42.708;23.288;2023-04-25T01:40:36;94196.28;;;12.52;89.66
6423;BME280;3244;42.708;23.288;2023-04-25T01:43:05;94204.97;;;12.64;90.28
6423;BME280;3244;42.708;23.288;2023-04-25T01:45:34;94200.06;;;12.61;90.09
6423;BME280;3244;42.708;23.288;2023-04-25T01:48:02;94207.22;;;12.54;90.38
6423;BME280;3244;42.708;23.288;2023-04-25T01:50:28;94217.97;;;12.44;91.03
6423;BME280;3244;42.708;23.288;2023-04-25T01:52:55;94216.50;;;12.40;91.53
6423;BME280;3244;42.708;23.288;2023-04-25T01:55:22;94218.97;;;12.57;91.18
6423;BME280;3244;42.708;23.288;2023-04-25T01:57:50;94210.91;;;12.49;91.63
6423;BME280;3244;42.708;23.288;2023-04-25T02:00:18;94223.63;;;12.65;90.34
6423;BME280;3244;42.708;23.288;2023-04-25T02:02:46;94217.53;;;12.67;89.43
6423;BME280;3244;42.708;23.288;2023-04-25T02:05:12;94220.94;;;12.52;90.31
6423;BME280;3244;42.708;23.288;2023-04-25T02:07:39;94221.59;;;12.40;90.56
6423;BME280;3244;42.708;23.288;2023-04-25T02:10:06;94210.91;;;12.17;91.09
6423;BME280;3244;42.708;23.288;2023-04-25T02:12:33;94215.53;;;12.26;91.19
6423;BME280;3244;42.708;23.288;2023-04-25T02:15:01;94211.41;;;12.40;91.17
6423;BME280;3244;42.708;23.288;2023-04-25T02:17:28;94208.19;;;12.52;90.33
6423;BME280;3244;42.708;23.288;2023-04-25T02:19:57;94198.22;;;12.63;89.18
6423;BME280;3244;42.708;23.288;2023-04-25T02:22:23;94193.25;;;12.46;89.33
6423;BME280;3244;42.708;23.288;2023-04-25T02:24:50;94193.00;;;12.50;88.99
6423;BME280;3244;42.708;23.288;2023-04-25T02:27:17;94189.38;;;12.39;89.95
6423;BME280;3244;42.708;23.288;2023-04-25T02:29:43;94188.00;;;12.33;90.77
6423;BME280;3244;42.708;23.288;2023-04-25T02:32:11;94175.25;;;12.17;91.34
6423;BME280;3244;42.708;23.288;2023-04-25T02:34:38;94169.09;;;12.21;91.91
6423;BME280;3244;42.708;23.288;2023-04-25T02:37:05;94172.88;;;12.14;91.88
6423;BME280;3244;42.708;23.288;2023-04-25T02:39:31;94165.00;;;12.03;92.58
6423;BME280;3244;42.708;23.288;2023-04-25T02:41:58;94170.31;;;12.14;92.75
6423;BME280;3244;42.708;23.288;2023-04-25T02:44:26;94170.41;;;11.97;92.38
6423;BME280;3244;42.708;23.288;2023-04-25T02:46:52;94178.88;;;11.98;92.70
6423;BME280;3244;42.708;23.288;2023-04-25T02:49:21;94159.31;;;11.98;93.06
6423;BME280;3244;42.708;23.288;2023-04-25T02:51:47;94153.06;;;11.88;93.47
6423;BME280;3244;42.708;23.288;2023-04-25T02:54:14;94155.72;;;12.02;92.89
6423;BME280;3244;42.708;23.288;2023-04-25T02:56:40;94163.44;;;11.85;93.44
6423;BME280;3244;42.708;23.288;2023-04-25T02:59:07;94166.22;;;11.80;93.98
6423;BME280;3244;42.708;23.288;2023-04-25T03:01:34;94162.22;;;11.75;94.40
6423;BME280;3244;42.708;23.288;2023-04-25T03:04:00;94159.47;;;11.79;94.53
6423;BME280;3244;42.708;23.288;2023-04-25T03:06:29;94156.03;;;11.96;93.06
6423;BME280;3244;42.708;23.288;2023-04-25T03:08:56;94156.69;;;11.84;93.31
6423;BME280;3244;42.708;23.288;2023-04-25T03:11:24;94160.59;;;11.74;94.27
6423;BME280;3244;42.708;23.288;2023-04-25T03:13:51;94167.56;;;11.70;94.33
6423;BME280;3244;42.708;23.288;2023-04-25T03:16:18;94158.16;;;11.88;93.68
6423;BME280;3244;42.708;23.288;2023-04-25T03:18:45;94155.38;;;11.92;93.42
6423;BME280;3244;42.708;23.288;2023-04-25T03:21:11;94146.00;;;11.93;93.42
6423;BME280;3244;42.708;23.288;2023-04-25T03:23:39;94152.59;;;11.97;93.60
6423;BME280;3244;42.708;23.288;2023-04-25T03:26:06;94152.09;;;11.90;93.97
6423;BME280;3244;42.708;23.288;2023-04-25T03:28:33;94144.72;;;12.02;94.38
6423;BME280;3244;42.708;23.288;2023-04-25T03:30:59;94145.94;;;11.95;94.77
6423;BME280;3244;42.708;23.288;2023-04-25T03:33:26;94153.59;;;12.10;93.11
6423;BME280;3244;42.708;23.288;2023-04-25T03:35:53;94151.59;;;12.00;93.33
6423;BME280;3244;42.708;23.288;2023-04-25T03:38:20;94154.22;;;11.98;93.64
6423;BME280;3244;42.708;23.288;2023-04-25T03:40:48;94145.94;;;12.10;93.56
6423;BME280;3244;42.708;23.288;2023-04-25T03:43:15;94150.38;;;12.22;93.07
6423;BME280;3244;42.708;23.288;2023-04-25T03:45:42;94145.59;;;12.32;92.14
6423;BME280;3244;42.708;23.288;2023-04-25T03:48:09;94146.97;;;12.38;90.48
6423;BME280;3244;42.708;23.288;2023-04-25T03:50:36;94144.78;;;12.32;90.72
6423;BME280;3244;42.708;23.288;2023-04-25T03:53:02;94151.09;;;12.24;91.91
6423;BME280;3244;42.708;23.288;2023-04-25T03:55:29;94154.72;;;12.36;92.33
6423;BME280;3244;42.708;23.288;2023-04-25T03:57:57;94144.44;;;12.68;91.64
6423;BME280;3244;42.708;23.288;2023-04-25T04:00:25;94155.88;;;12.90;89.57
6423;BME280;3244;42.708;23.288;2023-04-25T04:02:52;94162.28;;;12.98;88.69
6423;BME280;3244;42.708;23.288;2023-04-25T04:05:18;94160.56;;;13.12;88.06
6423;BME280;3244;42.708;23.288;2023-04-25T04:07:45;94160.75;;;13.25;87.49
6423;BME280;3244;42.708;23.288;2023-04-25T04:10:12;94167.94;;;13.33;87.81
6423;BME280;3244;42.708;23.288;2023-04-25T04:12:39;94158.22;;;13.53;86.53
6423;BME280;3244;42.708;23.288;2023-04-25T04:15:08;94147.63;;;13.74;85.17
6423;BME280;3244;42.708;23.288;2023-04-25T04:17:35;94153.28;;;13.65;84.42
6423;BME280;3244;42.708;23.288;2023-04-25T04:20:02;94151.81;;;13.32;85.87
6423;BME280;3244;42.708;23.288;2023-04-25T04:22:29;94147.75;;;13.14;86.36
6423;BME280;3244;42.708;23.288;2023-04-25T04:24:56;94156.84;;;13.04;87.68
6423;BME280;3244;42.708;23.288;2023-04-25T04:27:23;94146.91;;;13.29;86.75
6423;BME280;3244;42.708;23.288;2023-04-25T04:29:49;94150.34;;;13.28;86.09
6423;BME280;3244;42.708;23.288;2023-04-25T04:32:19;94160.81;;;13.38;87.43
6423;BME280;3244;42.708;23.288;2023-04-25T04:34:45;94153.44;;;13.61;85.99
6423;BME280;3244;42.708;23.288;2023-04-25T04:37:12;94159.28;;;13.63;84.91
6423;BME280;3244;42.708;23.288;2023-04-25T04:39:40;94151.19;;;13.71;84.85
6423;BME280;3244;42.708;23.288;2023-04-25T04:42:07;94161.00;;;13.63;84.78
6423;BME280;3244;42.708;23.288;2023-04-25T04:44:33;94163.66;;;13.61;85.34
6423;BME280;3244;42.708;23.288;2023-04-25T04:47:00;94159.66;;;13.72;84.48
6423;BME280;3244;42.708;23.288;2023-04-25T04:49:30;94167.50;;;13.54;84.87
6423;BME280;3244;42.708;23.288;2023-04-25T04:51:57;94170.22;;;13.37;86.16
6423;BME280;3244;42.708;23.288;2023-04-25T04:54:25;94166.03;;;13.50;85.27
6423;BME280;3244;42.708;23.288;2023-04-25T04:56:52;94176.34;;;13.35;86.12
6423;BME280;3244;42.708;23.288;2023-04-25T04:59:18;94168.59;;;13.36;86.68
6423;BME280;3244;42.708;23.288;2023-04-25T05:01:45;94178.25;;;13.45;86.70
6423;BME280;3244;42.708;23.288;2023-04-25T05:04:12;94180.81;;;13.59;86.29
6423;BME280;3244;42.708;23.288;2023-04-25T05:06:40;94183.72;;;13.39;86.06
6423;BME280;3244;42.708;23.288;2023-04-25T05:09:07;94191.56;;;13.36;86.85
6423;BME280;3244;42.708;23.288;2023-04-25T05:11:33;94184.25;;;13.44;86.91
6423;BME280;3244;42.708;23.288;2023-04-25T05:14:00;94184.28;;;13.58;86.35
6423;BME280;3244;42.708;23.288;2023-04-25T05:16:27;94182.00;;;13.54;86.59
6423;BME280;3244;42.708;23.288;2023-04-25T05:18:53;94196.31;;;13.56;87.09
6423;BME280;3244;42.708;23.288;2023-04-25T05:21:20;94190.81;;;13.62;85.53
6423;BME280;3244;42.708;23.288;2023-04-25T05:23:49;94191.28;;;13.69;85.77
6423;BME280;3244;42.708;23.288;2023-04-25T05:26:15;94191.38;;;13.68;85.46
6423;BME280;3244;42.708;23.288;2023-04-25T05:28:42;94185.19;;;13.72;86.04
6423;BME280;3244;42.708;23.288;2023-04-25T05:31:09;94182.09;;;13.81;85.42
6423;BME280;3244;42.708;23.288;2023-04-25T05:33:36;94182.44;;;13.89;85.41
6423;BME280;3244;42.708;23.288;2023-04-25T05:36:03;94191.75;;;14.04;84.79
6423;BME280;3244;42.708;23.288;2023-04-25T05:38:30;94184.41;;;14.12;83.95
6423;BME280;3244;42.708;23.288;2023-04-25T05:40:58;94171.03;;;14.36;83.15
6423;BME280;3244;42.708;23.288;2023-04-25T05:43:24;94170.75;;;14.54;81.14
6423;BME280;3244;42.708;23.288;2023-04-25T05:45:51;94180.72;;;14.72;80.54
6423;BME280;3244;42.708;23.288;2023-04-25T05:48:18;94175.78;;;14.95;79.73
6423;BME280;3244;42.708;23.288;2023-04-25T05:50:44;94179.19;;;15.21;79.09
6423;BME280;3244;42.708;23.288;2023-04-25T05:53:11;94171.13;;;15.53;77.95
6423;BME280;3244;42.708;23.288;2023-04-25T05:55:38;94176.91;;;15.82;76.80
6423;BME280;3244;42.708;23.288;2023-04-25T05:58:06;94172.31;;;16.11;75.59
6423;BME280;3244;42.708;23.288;2023-04-25T06:00:33;94178.56;;;16.56;73.26
6423;BME280;3244;42.708;23.288;2023-04-25T06:03:00;94180.25;;;16.92;70.67
6423;BME280;3244;42.708;23.288;2023-04-25T06:05:27;94172.59;;;17.49;69.73
6423;BME280;3244;42.708;23.288;2023-04-25T06:07:53;94175.94;;;17.96;68.31
6423;BME280;3244;42.708;23.288;2023-04-25T06:10:20;94179.69;;;18.03;67.98
6423;BME280;3244;42.708;23.288;2023-04-25T06:12:48;94170.53;;;18.10;67.14
6423;BME280;3244;42.708;23.288;2023-04-25T06:15:16;94168.31;;;17.83;66.70
6423;BME280;3244;42.708;23.288;2023-04-25T06:17:42;94181.09;;;17.27;68.35
6423;BME280;3244;42.708;23.288;2023-04-25T06:20:10;94180.41;;;17.02;69.37
6423;BME280;3244;42.708;23.288;2023-04-25T06:22:36;94192.72;;;16.49;70.87
6423;BME280;3244;42.708;23.288;2023-04-25T06:25:04;94189.00;;;15.80;73.45
6423;BME280;3244;42.708;23.288;2023-04-25T06:27:32;94193.63;;;15.22;75.80
6423;BME280;3244;42.708;23.288;2023-04-25T06:29:59;94178.44;;;14.94;76.50
6423;BME280;3244;42.708;23.288;2023-04-25T06:32:27;94187.69;;;15.09;75.71
6423;BME280;3244;42.708;23.288;2023-04-25T06:34:55;94187.16;;;15.82;74.23
6423;BME280;3244;42.708;23.288;2023-04-25T06:37:22;94178.91;;;17.10;70.57
6423;BME280;3244;42.708;23.288;2023-04-25T06:39:48;94186.78;;;17.66;67.17
6423;BME280;3244;42.708;23.288;2023-04-25T06:42:15;94200.69;;;18.42;64.49
6423;BME280;3244;42.708;23.288;2023-04-25T06:44:42;94188.78;;;19.99;61.76
6423;BME280;3244;42.708;23.288;2023-04-25T06:47:08;94181.72;;;22.42;51.81
6423;BME280;3244;42.708;23.288;2023-04-25T06:49:36;94172.03;;;21.60;51.46
6423;BME280;3244;42.708;23.288;2023-04-25T06:52:03;94179.69;;;20.04;55.58
6423;BME280;3244;42.708;23.288;2023-04-25T06:54:30;94193.00;;;18.85;59.39
6423;BME280;3244;42.708;23.288;2023-04-25T06:56:56;94185.94;;;18.55;60.95
6423;BME280;3244;42.708;23.288;2023-04-25T06:59:23;94192.25;;;18.40;61.89
6423;BME280;3244;42.708;23.288;2023-04-25T07:01:50;94185.38;;;18.18;61.61
6423;BME280;3244;42.708;23.288;2023-04-25T07:04:16;94183.88;;;17.71;63.25
6423;BME280;3244;42.708;23.288;2023-04-25T07:06:44;94187.59;;;17.20;65.24
6423;BME280;3244;42.708;23.288;2023-04-25T07:09:12;94195.88;;;16.89;66.84
6423;BME280;3244;42.708;23.288;2023-04-25T07:11:39;94190.06;;;16.50;67.10
6423;BME280;3244;42.708;23.288;2023-04-25T07:14:06;94185.47;;;16.06;69.30
6423;BME280;3244;42.708;23.288;2023-04-25T07:16:32;94196.03;;;15.89;70.50
6423;BME280;3244;42.708;23.288;2023-04-25T07:18:59;94193.19;;;15.81;71.08
6423;BME280;3244;42.708;23.288;2023-04-25T07:21:26;94184.06;;;15.64;71.49
6423;BME280;3244;42.708;23.288;2023-04-25T07:23:54;94181.59;;;15.62;72.68
6423;BME280;3244;42.708;23.288;2023-04-25T07:26:21;94187.63;;;15.61;71.27
6423;BME280;3244;42.708;23.288;2023-04-25T07:28:47;94184.44;;;15.96;70.75
6423;BME280;3244;42.708;23.288;2023-04-25T07:31:16;94180.56;;;16.76;68.50
6423;BME280;3244;42.708;23.288;2023-04-25T07:33:43;94180.94;;;17.18;66.28
6423;BME280;3244;42.708;23.288;2023-04-25T07:36:10;94176.81;;;17.50;65.71
6423;BME280;3244;42.708;23.288;2023-04-25T07:38:37;94175.88;;;17.51;65.39
6423;BME280;3244;42.708;23.288;2023-04-25T07:41:05;94168.06;;;17.64;66.02
6423;BME280;3244;42.708;23.288;2023-04-25T07:43:32;94175.00;;;17.97;65.59
6423;BME280;3244;42.708;23.288;2023-04-25T07:45:59;94178.72;;;18.15;63.54
6423;BME280;3244;42.708;23.288;2023-04-25T07:48:26;94168.28;;;18.39;63.18
6423;BME280;3244;42.708;23.288;2023-04-25T07:50:52;94170.13;;;19.23;61.35
6423;BME280;3244;42.708;23.288;2023-04-25T07:53:19;94169.34;;;20.75;56.70
6423;BME280;3244;42.708;23.288;2023-04-25T07:55:46;94156.97;;;20.88;55.23
6423;BME280;3244;42.708;23.288;2023-04-25T07:58:14;94161.34;;;21.83;53.68
6423;BME280;3244;42.708;23.288;2023-04-25T08:00:46;94150.44;;;21.98;51.76
6423;BME280;3244;42.708;23.288;2023-04-25T08:03:13;94159.91;;;22.17;52.19
6423;BME280;3244;42.708;23.288;2023-04-25T08:05:39;94146.63;;;21.93;52.15
6423;BME280;3244;42.708;23.288;2023-04-25T08:08:06;94148.13;;;21.49;53.97
6423;BME280;3244;42.708;23.288;2023-04-25T08:10:33;94153.28;;;21.29;52.33
6423;BME280;3244;42.708;23.288;2023-04-25T08:13:00;94137.72;;;21.78;52.37
6423;BME280;3244;42.708;23.288;2023-04-25T08:15:28;94134.63;;;24.89;46.20
6423;BME280;3244;42.708;23.288;2023-04-25T08:17:55;94124.38;;;29.94;36.84
6423;BME280;3244;42.708;23.288;2023-04-25T08:20:21;94110.03;;;30.72;32.51
6423;BME280;3244;42.708;23.288;2023-04-25T08:22:48;94124.06;;;29.33;34.51
6423;BME280;3244;42.708;23.288;2023-04-25T08:25:15;94134.03;;;27.62;37.91
6423;BME280;3244;42.708;23.288;2023-04-25T08:27:41;94147.00;;;25.93;41.69
6423;BME280;3244;42.708;23.288;2023-04-25T08:30:08;94143.28;;;24.39;47.04
6423;BME280;3244;42.708;23.288;2023-04-25T08:32:37;94142.88;;;22.87;52.45
6423;BME280;3244;42.708;23.288;2023-04-25T08:35:04;94146.22;;;21.51;53.68
6423;BME280;3244;42.708;23.288;2023-04-25T08:37:32;94152.63;;;20.29;55.59
6423;BME280;3244;42.708;23.288;2023-04-25T08:39:58;94164.63;;;19.69;59.13
6423;BME280;3244;42.708;23.288;2023-04-25T08:42:26;94152.69;;;19.27;62.40
6423;BME280;3244;42.708;23.288;2023-04-25T08:44:54;94147.13;;;19.11;62.71
6423;BME280;3244;42.708;23.288;2023-04-25T08:47:22;94154.50;;;19.78;60.93
6423;BME280;3244;42.708;23.288;2023-04-25T08:49:52;94139.38;;;22.33;53.84
6423;BME280;3244;42.708;23.288;2023-04-25T08:52:21;94142.53;;;23.61;48.92
6423;BME280;3244;42.708;23.288;2023-04-25T08:54:48;94118.19;;;27.78;41.57
6423;BME280;3244;42.708;23.288;2023-04-25T08:57:17;94115.34;;;29.68;35.69
6423;BME280;3244;42.708;23.288;2023-04-25T08:59:44;94110.28;;;28.46;38.03
6423;BME280;3244;42.708;23.288;2023-04-25T09:02:12;94114.94;;;27.76;39.64
6423;BME280;3244;42.708;23.288;2023-04-25T09:04:43;94113.66;;;29.89;36.28
6423;BME280;3244;42.708;23.288;2023-04-25T09:07:11;94113.84;;;31.37;33.98
6423;BME280;3244;42.708;23.288;2023-04-25T09:09:57;94107.50;;;30.37;34.27
6423;BME280;3244;42.708;23.288;2023-04-25T09:12:25;94100.31;;;29.56;35.88
6423;BME280;3244;42.708;23.288;2023-04-25T09:15:02;94104.34;;;30.14;34.25
6423;BME280;3244;42.708;23.288;2023-04-25T09:17:29;94097.16;;;30.77;34.01
6423;BME280;3244;42.708;23.288;2023-04-25T09:20:05;94092.56;;;29.69;34.08
6423;BME280;3244;42.708;23.288;2023-04-25T09:22:32;94098.13;;;28.08;36.54
6423;BME280;3244;42.708;23.288;2023-04-25T09:25:02;94103.53;;;26.94;39.43
6423;BME280;3244;42.708;23.288;2023-04-25T09:27:29;94094.13;;;27.16;39.89
6423;BME280;3244;42.708;23.288;2023-04-25T09:29:57;94089.13;;;27.67;38.34
6423;BME280;3244;42.708;23.288;2023-04-25T09:32:25;94088.41;;;27.88;35.46
6423;BME280;3244;42.708;23.288;2023-04-25T09:34:54;94076.94;;;27.59;36.66
6423;BME280;3244;42.708;23.288;2023-04-25T09:37:22;94083.06;;;27.29;37.11
6423;BME280;3244;42.708;23.288;2023-04-25T09:39:50;94091.75;;;27.06;38.49
6423;BME280;3244;42.708;23.288;2023-04-25T09:42:22;94082.00;;;27.00;37.63
6423;BME280;3244;42.708;23.288;2023-04-25T09:44:51;94079.34;;;27.08;37.05
6423;BME280;3244;42.708;23.288;2023-04-25T09:47:19;94107.53;;;26.20;40.01
6423;BME280;3244;42.708;23.288;2023-04-25T09:49:47;94103.78;;;25.02;42.01
6423;BME280;3244;42.708;23.288;2023-04-25T09:52:15;94095.88;;;24.03;43.39
6423;BME280;3244;42.708;23.288;2023-04-25T09:54:42;94088.03;;;23.35;45.78
6423;BME280;3244;42.708;23.288;2023-04-25T09:57:11;94098.97;;;23.47;46.18
6423;BME280;3244;42.708;23.288;2023-04-25T09:59:43;94100.59;;;23.48;46.10
6423;BME280;3244;42.708;23.288;2023-04-25T10:02:11;94084.13;;;23.57;45.02
6423;BME280;3244;42.708;23.288;2023-04-25T10:04:38;94100.03;;;23.88;44.69
6423;BME280;3244;42.708;23.288;2023-04-25T10:07:07;94095.88;;;24.03;43.91
6423;BME280;3244;42.708;23.288;2023-04-25T10:09:36;94094.44;;;24.43;44.29
6423;BME280;3244;42.708;23.288;2023-04-25T10:12:05;94074.28;;;24.37;42.89
6423;BME280;3244;42.708;23.288;2023-04-25T10:14:32;94092.31;;;24.04;43.57
6423;BME280;3244;42.708;23.288;2023-04-25T10:17:01;94095.88;;;23.44;44.72
6423;BME280;3244;42.708;23.288;2023-04-25T10:19:28;94106.44;;;23.06;44.35
6423;BME280;3244;42.708;23.288;2023-04-25T10:22:02;94111.91;;;22.68;45.65
6423;BME280;3244;42.708;23.288;2023-04-25T10:24:30;94103.25;;;22.77;46.51
6423;BME280;3244;42.708;23.288;2023-04-25T10:26:57;94087.81;;;23.29;45.46
6423;BME280;3244;42.708;23.288;2023-04-25T10:29:25;94086.91;;;23.90;41.14
6423;BME280;3244;42.708;23.288;2023-04-25T10:31:52;94098.19;;;24.15;41.97
6423;BME280;3244;42.708;23.288;2023-04-25T10:34:24;94100.03;;;23.88;41.89
6423;BME280;3244;42.708;23.288;2023-04-25T10:36:52;94113.88;;;23.45;41.73
6423;BME280;3244;42.708;23.288;2023-04-25T10:39:23;94101.25;;;23.06;42.91
6423;BME280;3244;42.708;23.288;2023-04-25T10:41:55;94109.13;;;22.79;43.95
6423;BME280;3244;42.708;23.288;2023-04-25T10:44:23;94101.78;;;22.74;43.65
6423;BME280;3244;42.708;23.288;2023-04-25T10:46:52;94093.88;;;22.94;44.30
6423;BME280;3244;42.708;23.288;2023-04-25T10:49:33;94095.28;;;23.32;43.96
6423;BME280;3244;42.708;23.288;2023-04-25T10:52:25;94088.59;;;23.47;44.26
6423;BME280;3244;42.708;23.288;2023-04-25T10:54:54;94075.22;;;23.34;43.45
6423;BME280;3244;42.708;23.288;2023-04-25T10:57:35;94083.38;;;22.95;43.74
6423;BME280;3244;42.708;23.288;2023-04-25T11:00:09;94080.25;;;22.74;44.43
6423;BME280;3244;42.708;23.288;2023-04-25T11:02:38;94084.75;;;22.54;45.38
6423;BME280;3244;42.708;23.288;2023-04-25T11:05:09;94082.38;;;22.43;43.49
6423;BME280;3244;42.708;23.288;2023-04-25T11:07:49;94079.28;;;22.39;44.48
6423;BME280;3244;42.708;23.288;2023-04-25T11:10:17;94080.94;;;22.13;41.35
6423;BME280;3244;42.708;23.288;2023-04-25T11:12:44;94065.75;;;21.91;42.07
6423;BME280;3244;42.708;23.288;2023-04-25T11:15:11;94073.22;;;21.66;41.90
6423;BME280;3244;42.708;23.288;2023-04-25T11:17:38;94064.78;;;21.18;43.05
6423;BME280;3244;42.708;23.288;2023-04-25T11:20:07;94072.53;;;21.08;43.11
6423;BME280;3244;42.708;23.288;2023-04-25T11:22:38;94085.06;;;20.93;44.17
6423;BME280;3244;42.708;23.288;2023-04-25T11:25:07;94084.25;;;20.83;46.37
6423;BME280;3244;42.708;23.288;2023-04-25T11:27:34;94075.56;;;20.65;47.62
6423;BME280;3244;42.708;23.288;2023-04-25T11:30:11;94072.44;;;20.52;46.25
6423;BME280;3244;42.708;23.288;2023-04-25T11:32:39;94082.63;;;20.44;47.33
6423;BME280;3244;42.708;23.288;2023-04-25T11:35:07;94089.47;;;20.33;47.62
6423;BME280;3244;42.708;23.288;2023-04-25T11:37:33;94089.03;;;20.09;48.24
6423;BME280;3244;42.708;23.288;2023-04-25T11:40:02;94086.56;;;19.98;50.22
6423;BME280;3244;42.708;23.288;2023-04-25T11:42:32;94086.84;;;19.95;51.02
6423;BME280;3244;42.708;23.288;2023-04-25T11:44:59;94084.22;;;19.85;51.46
6423;BME280;3244;42.708;23.288;2023-04-25T11:47:29;94077.69;;;19.81;50.12
6423;BME280;3244;42.708;23.288;2023-04-25T11:49:58;94082.56;;;19.75;51.20
6423;BME280;3244;42.708;23.288;2023-04-25T11:52:24;94086.78;;;19.85;51.17
6423;BME280;3244;42.708;23.288;2023-04-25T11:54:51;94080.09;;;20.13;50.77
6423;BME280;3244;42.708;23.288;2023-04-25T11:57:20;94064.56;;;20.44;48.92
6423;BME280;3244;42.708;23.288;2023-04-25T11:59:47;94074.59;;;20.95;48.04
6423;BME280;3244;42.708;23.288;2023-04-25T12:02:24;94065.16;;;21.42;46.54
6423;BME280;3244;42.708;23.288;2023-04-25T12:04:51;94065.19;;;21.69;44.17
6423;BME280;3244;42.708;23.288;2023-04-25T12:07:18;94036.63;;;21.15;44.41
6423;BME280;3244;42.708;23.288;2023-04-25T12:09:51;94058.69;;;20.90;44.13
6423;BME280;3244;42.708;23.288;2023-04-25T12:12:19;94063.88;;;20.70;44.15
6423;BME280;3244;42.708;23.288;2023-04-25T12:14:47;94064.81;;;20.41;45.50
6423;BME280;3244;42.708;23.288;2023-04-25T12:17:14;94065.66;;;19.91;46.68
6423;BME280;3244;42.708;23.288;2023-04-25T12:19:40;94065.16;;;19.67;47.29
6423;BME280;3244;42.708;23.288;2023-04-25T12:22:20;94054.47;;;19.81;47.58
6423;BME280;3244;42.708;23.288;2023-04-25T12:24:47;94090.88;;;19.88;47.67
6423;BME280;3244;42.708;23.288;2023-04-25T12:27:15;94094.31;;;19.98;48.49
6423;BME280;3244;42.708;23.288;2023-04-25T12:29:52;94109.44;;;19.82;52.30
6423;BME280;3244;42.708;23.288;2023-04-25T12:32:19;94120.94;;;19.47;54.72
6423;BME280;3244;42.708;23.288;2023-04-25T12:34:46;94126.06;;;18.85;57.28
6423;BME280;3244;42.708;23.288;2023-04-25T12:37:13;94131.44;;;18.50;58.21
6423;BME280;3244;42.708;23.288;2023-04-25T12:39:40;94131.75;;;18.24;59.97
6423;BME280;3244;42.708;23.288;2023-04-25T12:42:07;94135.41;;;17.99;61.25
6423;BME280;3244;42.708;23.288;2023-04-25T12:44:37;94134.34;;;17.68;62.72
6423;BME280;3244;42.708;23.288;2023-04-25T12:47:05;94138.88;;;17.54;62.95
6423;BME280;3244;42.708;23.288;2023-04-25T12:49:32;94136.38;;;17.41;63.56
6423;BME280;3244;42.708;23.288;2023-04-25T12:51:58;94132.75;;;17.32;62.93
6423;BME280;3244;42.708;23.288;2023-04-25T12:54:25;94135.09;;;17.35;62.21
6423;BME280;3244;42.708;23.288;2023-04-25T12:56:52;94138.69;;;17.33;60.42
6423;BME280;3244;42.708;23.288;2023-04-25T12:59:19;94134.50;;;17.21;62.28
6423;BME280;3244;42.708;23.288;2023-04-25T13:01:46;94141.50;;;17.19;63.24
6423;BME280;3244;42.708;23.288;2023-04-25T13:04:14;94140.91;;;17.15;63.78
6423;BME280;3244;42.708;23.288;2023-04-25T13:06:41;94148.25;;;17.20;65.00
6423;BME280;3244;42.708;23.288;2023-04-25T13:09:08;94140.78;;;17.06;65.40
6423;BME280;3244;42.708;23.288;2023-04-25T13:11:35;94140.66;;;17.07;66.22
6423;BME280;3244;42.708;23.288;2023-04-25T13:14:01;94141.34;;;17.09;67.19